Time;durP1;ratioP1;P1;durP2;ratioP2;P2;SDS_P1;SDS_P2;PMS_P1;PMS_P2;Temp;Humidity;BMP_temperature;BMP_pressure;BME280_temperature;BME280_humidity;BME280_pressure;Samples;Min_cycle;Max_cycle;Signal;HPM_P1;HPM_P2
2022/07/07 00:02:03;;;;;;;0.38;0.20;;;16.00;99.90;;;;;;5075517;28;20040;-81
2022/07/07 00:04:30;;;;;;;0.20;0.20;;;16.00;99.90;;;;;;5042675;28;20451;-81
2022/07/07 00:06:57;;;;;;;0.15;0.10;;;16.00;99.90;;;;;;5059159;28;20040;-81
2022/07/07 00:09:24;;;;;;;0.60;0.22;;;16.00;99.90;;;;;;5042609;28;20067;-84
2022/07/07 00:11:51;;;;;;;0.20;0.20;;;16.00;99.90;;;;;;5075430;28;20036;-81
2022/07/07 00:14:18;;;;;;;0.10;0.10;;;16.00;99.90;;;;;;5075426;28;20507;-81
2022/07/07 00:16:45;;;;;;;0.32;0.20;;;16.00;99.90;;;;;;5042671;28;20558;-83
2022/07/07 00:19:11;;;;;;;0.17;0.15;;;16.00;99.90;;;;;;5058990;28;20048;-81
2022/07/07 00:21:38;;;;;;;0.47;0.20;;;16.00;99.90;;;;;;5075385;28;20048;-81
2022/07/07 00:24:05;;;;;;;0.50;0.30;;;16.00;99.90;;;;;;5058893;28;20048;-83
2022/07/07 00:26:32;;;;;;;0.20;0.20;;;16.00;99.90;;;;;;5058508;28;20162;-81
2022/07/07 00:28:59;;;;;;;0.15;0.10;;;16.00;99.90;;;;;;5058780;28;20098;-84
2022/07/07 00:31:26;;;;;;;0.50;0.20;;;16.00;99.90;;;;;;5074775;28;20032;-81
2022/07/07 00:33:52;;;;;;;0.28;0.28;;;16.00;99.90;;;;;;5050868;28;20565;-80
2022/07/07 00:36:19;;;;;;;0.00;0.00;;;16.00;99.90;;;;;;5078521;28;20032;-81
2022/07/07 00:38:46;;;;;;;0.08;0.08;;;16.00;99.90;;;;;;5095478;28;20040;-83
2022/07/07 00:41:14;;;;;;;0.17;0.10;;;16.00;99.90;;;;;;5078971;28;20040;-82
2022/07/07 00:43:42;;;;;;;0.10;0.10;;;16.00;99.90;;;;;;5061196;28;20060;-81
2022/07/07 00:46:10;;;;;;;0.20;0.20;;;15.90;99.90;;;;;;5058563;28;20512;-81
2022/07/07 00:48:38;;;;;;;0.25;0.20;;;16.00;99.90;;;;;;5074929;28;20044;-81
2022/07/07 00:51:06;;;;;;;0.13;0.13;;;16.00;99.90;;;;;;5057466;28;20387;-84
2022/07/07 00:53:33;;;;;;;0.15;0.15;;;16.00;99.90;;;;;;5074564;28;20040;-81
2022/07/07 00:56:00;;;;;;;0.35;0.25;;;16.00;99.90;;;;;;5058330;28;20043;-81
2022/07/07 00:58:27;;;;;;;0.00;0.00;;;16.00;99.90;;;;;;5074872;28;20094;-81
2022/07/07 01:00:53;;;;;;;0.08;0.08;;;16.00;99.90;;;;;;5058337;28;20094;-81
2022/07/07 01:03:20;;;;;;;0.10;0.10;;;15.90;99.90;;;;;;5058397;28;20044;-84
2022/07/07 01:05:48;;;;;;;0.28;0.20;;;16.00;99.90;;;;;;5041797;28;20036;-84
2022/07/07 01:08:15;;;;;;;0.10;0.10;;;16.00;99.90;;;;;;5057963;28;20036;-84
2022/07/07 01:10:45;;;;;;;0.10;0.10;;;16.00;99.90;;;;;;5074159;28;20098;-83
2022/07/07 01:13:12;;;;;;;0.22;0.20;;;16.00;99.90;;;;;;5074276;28;20043;-84
2022/07/07 01:15:39;;;;;;;0.20;0.10;;;16.00;99.90;;;;;;5057898;28;20560;-81
2022/07/07 01:18:06;;;;;;;0.17;0.17;;;16.00;99.90;;;;;;5041820;28;20374;-83
2022/07/07 01:20:34;;;;;;;0.45;0.17;;;16.00;99.90;;;;;;5057923;28;20045;-84
2022/07/07 01:23:00;;;;;;;0.10;0.10;;;15.90;99.90;;;;;;5057860;28;20481;-81
2022/07/07 01:25:27;;;;;;;0.17;0.10;;;16.00;99.90;;;;;;5057824;28;20082;-83
2022/07/07 01:27:54;;;;;;;0.10;0.10;;;15.90;99.90;;;;;;5057799;28;20043;-81
2022/07/07 01:30:21;;;;;;;0.10;0.10;;;16.00;99.90;;;;;;5057656;28;20106;-83
2022/07/07 01:32:47;;;;;;;0.15;0.15;;;15.90;99.90;;;;;;5073629;28;20091;-84
2022/07/07 01:35:14;;;;;;;0.03;0.03;;;15.90;99.90;;;;;;5057495;28;20047;-81
2022/07/07 01:37:41;;;;;;;0.10;0.10;;;15.90;99.90;;;;;;5041138;28;20123;-82
2022/07/07 01:40:08;;;;;;;0.00;0.00;;;15.90;99.90;;;;;;5041281;28;20033;-81
2022/07/07 01:42:34;;;;;;;0.00;0.00;;;15.90;99.90;;;;;;5090066;28;20120;-83
2022/07/07 01:45:01;;;;;;;0.05;0.05;;;15.90;99.90;;;;;;5057478;28;20134;-83
2022/07/07 01:47:28;;;;;;;0.47;0.28;;;15.80;99.90;;;;;;5073718;28;20036;-83
2022/07/07 01:49:55;;;;;;;0.08;0.08;;;15.80;99.90;;;;;;5073652;28;20032;-83
2022/07/07 01:52:21;;;;;;;0.00;0.00;;;15.80;99.90;;;;;;5057231;28;20129;-83
2022/07/07 01:54:48;;;;;;;0.10;0.10;;;15.80;99.90;;;;;;5040774;28;20036;-81
2022/07/07 01:57:16;;;;;;;0.20;0.10;;;15.70;99.90;;;;;;5040969;28;20036;-83
2022/07/07 01:59:43;;;;;;;0.10;0.10;;;15.70;99.90;;;;;;5040952;28;20040;-83
2022/07/07 02:02:09;;;;;;;0.10;0.10;;;15.70;99.90;;;;;;5073339;28;20047;-81
2022/07/07 02:04:36;;;;;;;0.00;0.00;;;15.70;99.90;;;;;;5040581;28;20040;-81
2022/07/07 02:07:03;;;;;;;0.10;0.10;;;15.70;99.90;;;;;;5057181;28;20041;-83
2022/07/07 02:09:30;;;;;;;0.00;0.00;;;15.70;99.90;;;;;;5057045;28;20049;-81
2022/07/07 02:11:57;;;;;;;0.00;0.00;;;15.70;99.90;;;;;;5072667;28;20043;-83
2022/07/07 02:14:24;;;;;;;0.00;0.00;;;15.70;99.90;;;;;;5056654;28;20853;-81
2022/07/07 02:16:51;;;;;;;0.00;0.00;;;15.70;99.90;;;;;;5073225;28;20115;-83
2022/07/07 02:19:18;;;;;;;0.00;0.00;;;15.70;99.90;;;;;;5057280;28;20040;-81
2022/07/07 02:21:44;;;;;;;0.10;0.10;;;15.70;99.90;;;;;;5040219;28;20135;-83
2022/07/07 02:24:11;;;;;;;0.05;0.00;;;15.70;99.90;;;;;;5073304;28;20071;-83
2022/07/07 02:26:38;;;;;;;0.00;0.00;;;15.70;99.90;;;;;;5039938;28;20040;-81
2022/07/07 02:29:04;;;;;;;0.15;0.10;;;15.70;99.90;;;;;;5040083;28;20136;-80
2022/07/07 02:31:31;;;;;;;0.10;0.10;;;15.70;99.90;;;;;;5089073;28;20044;-83
2022/07/07 02:33:58;;;;;;;0.10;0.10;;;15.70;99.90;;;;;;5073262;28;20049;-83
2022/07/07 02:36:25;;;;;;;0.10;0.10;;;15.70;99.90;;;;;;5056569;28;20044;-81
2022/07/07 02:38:52;;;;;;;0.30;0.10;;;15.70;99.90;;;;;;5072647;28;20047;-83
2022/07/07 02:41:19;;;;;;;0.20;0.13;;;15.70;99.90;;;;;;5056559;28;20051;-80
2022/07/07 02:43:46;;;;;;;0.00;0.00;;;15.70;99.90;;;;;;5056530;28;20036;-83
2022/07/07 02:46:13;;;;;;;0.10;0.10;;;15.70;99.90;;;;;;5057055;28;20041;-81
2022/07/07 02:48:40;;;;;;;0.00;0.00;;;15.70;99.90;;;;;;5056375;28;20520;-81
2022/07/07 02:51:08;;;;;;;0.00;0.00;;;15.70;99.90;;;;;;5056577;28;20120;-80
2022/07/07 02:53:36;;;;;;;0.10;0.10;;;15.70;99.90;;;;;;5057009;28;20045;-82
2022/07/07 02:56:03;;;;;;;0.10;0.10;;;15.70;99.90;;;;;;5056447;28;20499;-81
2022/07/07 02:58:30;;;;;;;0.28;0.10;;;15.70;99.90;;;;;;5056322;28;20123;-83
2022/07/07 03:00:57;;;;;;;0.10;0.10;;;15.70;99.90;;;;;;5073001;28;20080;-83
2022/07/07 03:03:24;;;;;;;0.05;0.00;;;15.70;99.90;;;;;;5040068;28;20145;-83
2022/07/07 03:05:50;;;;;;;0.00;0.00;;;15.70;99.90;;;;;;5072292;28;20489;-81
2022/07/07 03:08:17;;;;;;;0.25;0.10;;;15.70;99.90;;;;;;5056154;28;20142;-83
2022/07/07 03:10:44;;;;;;;0.00;0.00;;;15.80;99.90;;;;;;5055882;28;20044;-81
2022/07/07 03:13:11;;;;;;;0.05;0.05;;;15.70;99.90;;;;;;5073610;28;20049;-83
2022/07/07 03:15:38;;;;;;;0.17;0.13;;;15.70;99.90;;;;;;5060208;28;20043;-83
2022/07/07 03:18:04;;;;;;;0.85;0.73;;;15.70;99.90;;;;;;5043828;28;20036;-83
2022/07/07 03:20:31;;;;;;;0.00;0.00;;;15.70;99.90;;;;;;5076584;28;20044;-80
2022/07/07 03:22:58;;;;;;;0.10;0.10;;;15.70;99.90;;;;;;5059363;28;20154;-81
2022/07/07 03:25:25;;;;;;;0.10;0.10;;;15.70;99.90;;;;;;5043591;28;20139;-83
2022/07/07 03:27:51;;;;;;;0.00;0.00;;;15.70;99.90;;;;;;5059339;28;20051;-81
2022/07/07 03:30:18;;;;;;;0.20;0.13;;;15.70;99.90;;;;;;5059877;28;20045;-83
2022/07/07 03:32:45;;;;;;;0.00;0.00;;;15.70;99.90;;;;;;5042553;28;20044;-83
2022/07/07 03:35:12;;;;;;;0.10;0.10;;;15.70;99.90;;;;;;5043470;28;20127;-83
2022/07/07 03:37:39;;;;;;;0.00;0.00;;;15.70;99.90;;;;;;5043530;28;20035;-83
2022/07/07 03:40:06;;;;;;;0.10;0.10;;;15.60;99.90;;;;;;5059330;28;20036;-83
2022/07/07 03:42:35;;;;;;;0.03;0.03;;;15.60;99.90;;;;;;5059956;28;20036;-81
2022/07/07 03:45:02;;;;;;;0.00;0.00;;;15.60;99.90;;;;;;5076379;28;20497;-83
2022/07/07 03:47:28;;;;;;;0.08;0.08;;;15.70;99.90;;;;;;5059336;28;20098;-81
2022/07/07 03:49:55;;;;;;;0.00;0.00;;;15.60;99.90;;;;;;5043217;28;20047;-83
2022/07/07 03:52:22;;;;;;;0.10;0.10;;;15.60;99.90;;;;;;5043294;28;20593;-83
2022/07/07 03:54:48;;;;;;;0.00;0.00;;;15.60;99.90;;;;;;5043204;28;20632;-81
2022/07/07 03:57:15;;;;;;;0.00;0.00;;;15.60;99.90;;;;;;5043365;28;20135;-81
2022/07/07 03:59:42;;;;;;;0.03;0.03;;;15.60;99.90;;;;;;5076039;28;20397;-84
2022/07/07 04:02:09;;;;;;;0.10;0.10;;;15.60;99.90;;;;;;5075600;28;20486;-84
2022/07/07 04:04:37;;;;;;;0.00;0.00;;;15.50;99.90;;;;;;5059589;28;20036;-84
2022/07/07 04:07:04;;;;;;;0.00;0.00;;;15.50;99.90;;;;;;5075283;28;20040;-81
2022/07/07 04:09:30;;;;;;;0.00;0.00;;;15.50;99.90;;;;;;5059488;28;20051;-80
2022/07/07 04:11:57;;;;;;;0.00;0.00;;;15.50;99.90;;;;;;5058657;28;20053;-83
2022/07/07 04:14:24;;;;;;;0.00;0.00;;;15.40;99.90;;;;;;5042512;28;20036;-81
2022/07/07 04:16:51;;;;;;;0.00;0.00;;;15.40;99.90;;;;;;5075319;28;20043;-84
2022/07/07 04:19:17;;;;;;;0.00;0.00;;;15.40;99.90;;;;;;5042978;28;20043;-83
2022/07/07 04:21:44;;;;;;;0.00;0.00;;;15.40;99.90;;;;;;5059011;28;20048;-81
2022/07/07 04:24:10;;;;;;;0.00;0.00;;;15.40;99.90;;;;;;5057976;28;20076;-81
2022/07/07 04:26:37;;;;;;;0.00;0.00;;;15.40;99.90;;;;;;5058235;28;20047;-81
2022/07/07 04:29:04;;;;;;;0.10;0.08;;;15.40;99.90;;;;;;5042323;28;20097;-81
2022/07/07 04:31:31;;;;;;;0.00;0.00;;;15.30;99.90;;;;;;5074855;28;20405;-81
2022/07/07 04:33:57;;;;;;;0.10;0.10;;;15.40;99.90;;;;;;5042424;28;20095;-83
2022/07/07 04:36:24;;;;;;;0.00;0.00;;;15.40;99.90;;;;;;5058820;28;20516;-81
2022/07/07 04:38:51;;;;;;;0.10;0.03;;;15.40;99.90;;;;;;5042245;28;20036;-83
2022/07/07 04:41:17;;;;;;;0.00;0.00;;;15.30;99.90;;;;;;5058538;28;20063;-83
2022/07/07 04:43:44;;;;;;;0.00;0.00;;;15.30;99.90;;;;;;5058443;28;20060;-84
2022/07/07 04:46:11;;;;;;;0.00;0.00;;;15.30;99.90;;;;;;5058299;28;20109;-81
2022/07/07 04:48:38;;;;;;;0.00;0.00;;;15.30;99.90;;;;;;5059004;28;20040;-81
2022/07/07 04:51:05;;;;;;;0.00;0.00;;;15.30;99.90;;;;;;5058283;28;20481;-84
2022/07/07 04:53:31;;;;;;;0.00;0.00;;;15.20;99.90;;;;;;5042378;28;20539;-83
2022/07/07 04:55:58;;;;;;;0.00;0.00;;;15.20;99.90;;;;;;5074368;28;20115;-81
2022/07/07 04:58:25;;;;;;;0.00;0.00;;;15.20;99.90;;;;;;5058185;28;20127;-81
2022/07/07 05:00:51;;;;;;;0.00;0.00;;;15.20;99.90;;;;;;5058430;28;20041;-83
2022/07/07 05:03:18;;;;;;;0.00;0.00;;;15.20;99.90;;;;;;5041951;28;20044;-82
2022/07/07 05:05:45;;;;;;;0.10;0.10;;;15.20;99.90;;;;;;5041739;28;20382;-83
2022/07/07 05:08:11;;;;;;;0.00;0.00;;;15.20;99.90;;;;;;5057941;28;20036;-83
2022/07/07 05:10:38;;;;;;;0.00;0.00;;;15.10;99.90;;;;;;5057718;28;20039;-81
2022/07/07 05:13:05;;;;;;;0.05;0.05;;;15.10;99.90;;;;;;5074086;28;20098;-83
2022/07/07 05:15:31;;;;;;;0.00;0.00;;;15.00;99.90;;;;;;5057789;28;20079;-81
2022/07/07 05:17:58;;;;;;;0.00;0.00;;;15.00;99.90;;;;;;5057429;28;20040;-82
2022/07/07 05:20:25;;;;;;;0.00;0.00;;;14.90;99.90;;;;;;5057733;28;20032;-83
2022/07/07 05:22:51;;;;;;;0.10;0.10;;;14.90;99.90;;;;;;5057687;28;20041;-81
2022/07/07 05:25:18;;;;;;;0.22;0.22;;;14.90;99.90;;;;;;5021387;28;20033;-83
2022/07/07 05:27:45;;;;;;;0.05;0.05;;;14.90;99.90;;;;;;5085538;28;20033;-83
2022/07/07 05:30:12;;;;;;;0.10;0.10;;;14.90;99.90;;;;;;5057491;28;20044;-81
2022/07/07 05:32:39;;;;;;;0.00;0.00;;;14.90;99.90;;;;;;5057588;28;20076;-83
2022/07/07 05:35:06;;;;;;;0.00;0.00;;;14.90;99.90;;;;;;5090499;28;20047;-83
2022/07/07 05:37:33;;;;;;;0.00;0.00;;;14.80;99.90;;;;;;5083418;28;20119;-82
2022/07/07 05:40:00;;;;;;;0.00;0.00;;;14.80;99.90;;;;;;5054656;28;20591;-82
2022/07/07 05:42:26;;;;;;;0.00;0.00;;;14.80;99.90;;;;;;5110477;28;20036;-80
2022/07/07 05:44:53;;;;;;;0.10;0.10;;;14.80;99.90;;;;;;5061223;28;20561;-81
2022/07/07 05:47:20;;;;;;;0.00;0.00;;;14.90;99.90;;;;;;5076836;28;20831;-83
2022/07/07 05:49:47;;;;;;;0.10;0.00;;;14.90;99.90;;;;;;5093417;28;20047;-81
2022/07/07 05:52:14;;;;;;;0.08;0.08;;;14.90;99.90;;;;;;5077123;28;20049;-83
2022/07/07 05:54:40;;;;;;;0.10;0.10;;;14.90;99.90;;;;;;5095014;28;20127;-83
2022/07/07 05:57:07;;;;;;;0.00;0.00;;;14.90;99.90;;;;;;5080503;28;20123;-81
2022/07/07 05:59:34;;;;;;;0.00;0.00;;;14.90;99.90;;;;;;5112254;28;20032;-80
2022/07/07 06:02:01;;;;;;;0.00;0.00;;;14.90;99.90;;;;;;5095077;28;20122;-83
2022/07/07 06:04:27;;;;;;;0.22;0.10;;;14.90;99.90;;;;;;5076391;28;20046;-83
2022/07/07 06:06:54;;;;;;;0.00;0.00;;;14.90;99.90;;;;;;5093406;28;20486;-83
2022/07/07 06:09:21;;;;;;;0.00;0.00;;;14.90;99.90;;;;;;5068178;28;20033;-81
2022/07/07 06:11:47;;;;;;;0.00;0.00;;;14.90;99.90;;;;;;5040479;28;20094;-83
2022/07/07 06:14:14;;;;;;;0.00;0.00;;;14.90;99.90;;;;;;5072677;28;20036;-83
2022/07/07 06:16:41;;;;;;;0.00;0.00;;;14.90;99.90;;;;;;5056934;28;20075;-81
2022/07/07 06:19:13;;;;;;;0.28;0.20;;;14.90;99.90;;;;;;5056204;28;20493;-81
2022/07/07 06:21:41;;;;;;;0.00;0.00;;;14.80;99.90;;;;;;5072871;28;20039;-84
2022/07/07 06:24:08;;;;;;;0.00;0.00;;;14.90;99.90;;;;;;5075832;28;20048;-83
2022/07/07 06:26:35;;;;;;;0.00;0.00;;;14.90;99.90;;;;;;5093734;28;20127;-83
2022/07/07 06:29:02;;;;;;;0.00;0.00;;;14.90;99.90;;;;;;5092767;28;20480;-83
2022/07/07 06:31:29;;;;;;;0.00;0.00;;;15.00;99.90;;;;;;5066870;28;20485;-81
2022/07/07 06:33:56;;;;;;;0.00;0.00;;;15.00;99.90;;;;;;5072890;28;20040;-81
2022/07/07 06:36:23;;;;;;;0.00;0.00;;;15.00;99.90;;;;;;5075676;28;20035;-81
2022/07/07 06:38:49;;;;;;;0.00;0.00;;;15.10;99.90;;;;;;5075513;28;20035;-81
2022/07/07 06:41:16;;;;;;;0.00;0.00;;;15.10;99.90;;;;;;5092810;28;20484;-81
2022/07/07 06:43:43;;;;;;;0.00;0.00;;;15.20;99.90;;;;;;5093090;28;20040;-81
2022/07/07 06:46:10;;;;;;;0.00;0.00;;;15.20;99.90;;;;;;5109187;28;20048;-82
2022/07/07 06:48:36;;;;;;;0.00;0.00;;;15.20;99.90;;;;;;5125534;28;20127;-82
2022/07/07 06:51:03;;;;;;;0.10;0.10;;;15.20;99.90;;;;;;5072007;28;20032;-81
2022/07/07 06:53:30;;;;;;;0.00;0.00;;;15.30;99.90;;;;;;5039669;28;20040;-85
2022/07/07 06:55:57;;;;;;;0.00;0.00;;;15.30;99.90;;;;;;5056354;28;20036;-81
2022/07/07 06:58:24;;;;;;;0.20;0.00;;;15.30;99.90;;;;;;5088599;28;20028;-81
2022/07/07 07:00:50;;;;;;;0.00;0.00;;;15.30;99.90;;;;;;5071892;28;20094;-81
2022/07/07 07:03:17;;;;;;;0.05;0.05;;;15.30;99.90;;;;;;5088950;28;20044;-81
2022/07/07 07:05:44;;;;;;;0.00;0.00;;;15.40;99.90;;;;;;5076108;28;20040;-84
2022/07/07 07:08:10;;;;;;;0.00;0.00;;;15.60;99.90;;;;;;5089023;28;20041;-84
2022/07/07 07:10:37;;;;;;;0.00;0.00;;;15.70;99.90;;;;;;5056074;28;20045;-81
2022/07/07 07:13:04;;;;;;;0.20;0.10;;;15.80;99.90;;;;;;5036960;28;20078;-86
2022/07/07 07:15:30;;;;;;;0.05;0.05;;;15.90;99.90;;;;;;5088372;28;20468;-81
2022/07/07 07:17:57;;;;;;;0.00;0.00;;;16.00;99.90;;;;;;5071979;28;20098;-80
2022/07/07 07:20:24;;;;;;;0.00;0.00;;;16.10;99.90;;;;;;5051893;28;20037;-83
2022/07/07 07:22:51;;;;;;;0.00;0.00;;;16.20;99.90;;;;;;5085157;28;20406;-84
2022/07/07 07:25:19;;;;;;;0.10;0.10;;;16.30;99.90;;;;;;5068233;28;20041;-82
2022/07/07 07:27:45;;;;;;;0.35;0.10;;;16.40;99.90;;;;;;5055790;28;20074;-84
2022/07/07 07:30:14;;;;;;;0.00;0.00;;;16.50;99.90;;;;;;5071743;28;20087;-81
2022/07/07 07:32:43;;;;;;;0.00;0.00;;;16.60;99.90;;;;;;5051675;28;20045;-81
2022/07/07 07:35:10;;;;;;;0.10;0.10;;;16.60;99.90;;;;;;5068693;28;20106;-81
2022/07/07 07:37:39;;;;;;;0.00;0.00;;;16.70;99.90;;;;;;5084711;28;20116;-81
2022/07/07 07:40:09;;;;;;;0.10;0.00;;;16.70;99.90;;;;;;5052788;28;20041;-82
2022/07/07 07:42:37;;;;;;;0.00;0.00;;;16.80;99.90;;;;;;5068197;28;20044;-80
2022/07/07 07:45:10;;;;;;;0.08;0.03;;;17.00;99.90;;;;;;5068081;28;20178;-82
2022/07/07 07:47:43;;;;;;;0.00;0.00;;;17.10;99.90;;;;;;5052371;28;20491;-82
2022/07/07 07:50:12;;;;;;;0.00;0.00;;;17.00;99.90;;;;;;5065467;28;20079;-80
2022/07/07 07:52:41;;;;;;;0.00;0.00;;;16.90;99.90;;;;;;5066998;28;20033;-80
2022/07/07 07:55:10;;;;;;;0.10;0.10;;;16.70;99.90;;;;;;5084709;28;20044;-80
2022/07/07 07:57:37;;;;;;;0.00;0.00;;;16.70;99.90;;;;;;5067832;28;20498;-80
2022/07/07 08:00:06;;;;;;;0.15;0.15;;;16.50;99.90;;;;;;5069414;28;20045;-82
2022/07/07 08:02:34;;;;;;;0.00;0.00;;;16.50;99.90;;;;;;5070938;28;20536;-80
2022/07/07 08:05:01;;;;;;;0.00;0.00;;;16.50;99.90;;;;;;5055609;28;20041;-82
2022/07/07 08:07:28;;;;;;;0.00;0.00;;;16.50;99.90;;;;;;5071569;28;20041;-82
2022/07/07 08:09:54;;;;;;;0.00;0.00;;;16.40;99.90;;;;;;5071892;28;20144;-83
2022/07/07 08:12:21;;;;;;;0.10;0.00;;;16.50;99.90;;;;;;5058091;28;20055;-83
2022/07/07 08:14:49;;;;;;;0.00;0.00;;;16.50;99.90;;;;;;5077249;28;20485;-82
2022/07/07 08:17:17;;;;;;;0.25;0.10;;;16.70;99.90;;;;;;5058488;28;20570;-80
2022/07/07 08:19:44;;;;;;;0.10;0.10;;;16.90;99.90;;;;;;5058917;28;20037;-83
2022/07/07 08:22:11;;;;;;;0.00;0.00;;;17.00;99.90;;;;;;5070888;28;20041;-82
2022/07/07 08:24:38;;;;;;;0.00;0.00;;;17.00;99.90;;;;;;5104657;28;20048;-80
2022/07/07 08:27:05;;;;;;;0.00;0.00;;;17.10;99.90;;;;;;5056432;28;20043;-81
2022/07/07 08:29:32;;;;;;;0.90;0.20;;;17.20;99.90;;;;;;5070512;28;20041;-82
2022/07/07 08:31:59;;;;;;;0.00;0.00;;;17.30;99.90;;;;;;5101493;28;20052;-82
2022/07/07 08:34:25;;;;;;;0.00;0.00;;;17.30;99.90;;;;;;5058221;28;20036;-82
2022/07/07 08:36:52;;;;;;;0.00;0.00;;;17.40;99.90;;;;;;5093022;28;20511;-83
2022/07/07 08:39:19;;;;;;;0.00;0.00;;;17.50;99.90;;;;;;5054107;28;20036;-81
2022/07/07 08:41:46;;;;;;;0.00;0.00;;;17.50;99.90;;;;;;5074536;28;20123;-80
2022/07/07 08:44:13;;;;;;;0.00;0.00;;;17.30;99.90;;;;;;5057313;28;20047;-80
2022/07/07 08:46:41;;;;;;;0.00;0.00;;;17.00;99.90;;;;;;5091145;28;20055;-81
2022/07/07 08:49:09;;;;;;;0.00;0.00;;;17.00;99.90;;;;;;5074258;28;20052;-82
2022/07/07 08:51:44;;;;;;;0.00;0.00;;;17.00;99.90;;;;;;5073572;28;20509;-82
2022/07/07 08:54:13;;;;;;;0.00;0.00;;;17.20;99.90;;;;;;5038281;28;20071;-80
2022/07/07 08:56:41;;;;;;;0.00;0.00;;;17.40;99.90;;;;;;5105057;28;20051;-80
2022/07/07 08:59:15;;;;;;;0.00;0.00;;;17.40;99.90;;;;;;5057316;28;20094;-81
2022/07/07 09:01:56;;;;;;;0.00;0.00;;;17.20;99.90;;;;;;5093531;28;20139;-82
2022/07/07 09:04:23;;;;;;;0.00;0.00;;;17.10;99.90;;;;;;5092211;28;20039;-82
2022/07/07 09:06:56;;;;;;;0.00;0.00;;;17.10;99.90;;;;;;5110938;28;20044;-83
2022/07/07 09:09:45;;;;;;;0.00;0.00;;;17.20;99.90;;;;;;5070324;28;20421;-81
2022/07/07 09:12:14;;;;;;;0.00;0.00;;;17.20;99.90;;;;;;5073340;28;20044;-84
2022/07/07 09:14:47;;;;;;;0.08;0.08;;;17.30;99.90;;;;;;5057218;28;20043;-83
2022/07/07 09:17:16;;;;;;;0.10;0.10;;;17.40;99.90;;;;;;5073996;28;20048;-82
2022/07/07 09:20:03;;;;;;;0.20;0.10;;;17.60;99.90;;;;;;5073158;28;20804;-80
2022/07/07 09:22:51;;;;;;;0.00;0.00;;;17.90;99.90;;;;;;5073282;28;20409;-83
2022/07/07 09:25:21;;;;;;;0.08;0.08;;;18.10;99.90;;;;;;5073822;28;20044;-83
2022/07/07 09:28:05;;;;;;;0.00;0.00;;;18.00;99.90;;;;;;5123793;28;20040;-83
2022/07/07 09:30:37;;;;;;;0.10;0.00;;;17.80;99.90;;;;;;5107007;28;20040;-82
2022/07/07 09:33:09;;;;;;;0.00;0.00;;;17.60;99.90;;;;;;5067658;28;20051;-83
2022/07/07 09:38:24;;;;;;;0.10;0.10;;;17.30;99.90;;;;;;5079945;28;20043;-83
2022/07/07 09:40:52;;;;;;;0.00;0.00;;;17.30;99.90;;;;;;5111688;28;20064;-84
2022/07/07 09:43:20;;;;;;;0.00;0.00;;;17.30;99.90;;;;;;5091381;28;20066;-81
2022/07/07 09:45:48;;;;;;;0.00;0.00;;;17.40;99.90;;;;;;5090340;28;20044;-84
2022/07/07 09:48:15;;;;;;;0.30;0.10;;;17.40;99.90;;;;;;5074075;28;20033;-82
2022/07/07 09:50:42;;;;;;;0.00;0.00;;;17.40;99.90;;;;;;5050117;28;20036;-81
2022/07/07 09:53:08;;;;;;;1.08;0.45;;;17.40;99.90;;;;;;5100356;28;20037;-87
2022/07/07 09:55:35;;;;;;;0.00;0.00;;;17.50;99.90;;;;;;5097420;28;20077;-81
2022/07/07 09:58:03;;;;;;;0.00;0.00;;;17.70;99.90;;;;;;5089906;28;20486;-81
2022/07/07 10:00:30;;;;;;;0.00;0.00;;;17.70;99.90;;;;;;5056761;28;20032;-84
2022/07/07 10:02:56;;;;;;;0.03;0.00;;;17.70;99.90;;;;;;5072684;28;20401;-84
2022/07/07 10:05:24;;;;;;;0.10;0.00;;;17.50;99.90;;;;;;5039854;28;20067;-84
2022/07/07 10:07:53;;;;;;;0.00;0.00;;;17.30;99.90;;;;;;5056880;28;20045;-81
2022/07/07 10:10:21;;;;;;;0.20;0.20;;;17.30;99.90;;;;;;5056490;28;20054;-83
2022/07/07 10:12:52;;;;;;;0.00;0.00;;;17.30;99.90;;;;;;5079639;28;20044;-81
2022/07/07 10:15:20;;;;;;;0.00;0.00;;;17.40;99.90;;;;;;5056663;28;20504;-81
2022/07/07 10:17:49;;;;;;;0.00;0.00;;;17.50;99.90;;;;;;5072804;28;20040;-84
2022/07/07 10:20:15;;;;;;;0.00;0.00;;;17.60;99.90;;;;;;5099779;28;20033;-84
2022/07/07 10:22:43;;;;;;;0.00;0.00;;;17.50;99.90;;;;;;5056122;28;20051;-83
2022/07/07 10:25:11;;;;;;;0.10;0.10;;;17.50;99.90;;;;;;5070930;28;20035;-83
2022/07/07 10:27:44;;;;;;;0.00;0.00;;;17.40;99.90;;;;;;5092330;28;20447;-82
2022/07/07 10:30:28;;;;;;;0.00;0.00;;;17.30;99.90;;;;;;5111312;28;20131;-84
2022/07/07 10:32:56;;;;;;;0.00;0.00;;;17.10;99.90;;;;;;5058468;28;20048;-85
2022/07/07 10:35:25;;;;;;;0.17;0.10;;;17.00;99.90;;;;;;5069889;28;20041;-82
2022/07/07 10:37:57;;;;;;;0.00;0.00;;;17.00;99.90;;;;;;5101930;28;20056;-84
2022/07/07 10:40:27;;;;;;;0.10;0.10;;;17.10;99.90;;;;;;5051975;28;20045;-84
2022/07/07 10:43:12;;;;;;;0.00;0.00;;;17.20;99.90;;;;;;5054408;28;20044;-84
2022/07/07 10:45:45;;;;;;;0.10;0.08;;;17.20;99.90;;;;;;5071391;28;20493;-85
2022/07/07 10:48:47;;;;;;;0.52;0.15;;;17.10;99.90;;;;;;5059505;28;20098;-81
2022/07/07 10:51:32;;;;;;;0.10;0.10;;;16.80;99.90;;;;;;5087797;28;20097;-81
2022/07/07 10:54:04;;;;;;;0.00;0.00;;;16.70;99.90;;;;;;5056006;28;20042;-87
2022/07/07 10:56:55;;;;;;;0.00;0.00;;;16.70;99.90;;;;;;5074108;28;20282;-88
2022/07/07 10:59:23;;;;;;;0.00;0.00;;;16.80;99.90;;;;;;5075246;28;20097;-83
2022/07/07 11:02:01;;;;;;;0.00;0.00;;;16.80;99.90;;;;;;5073688;28;20098;-88
2022/07/07 11:04:45;;;;;;;0.00;0.00;;;16.80;99.90;;;;;;5090746;28;20040;-84
2022/07/07 11:07:21;;;;;;;0.00;0.00;;;16.80;99.90;;;;;;5085517;28;20064;-90
2022/07/07 11:10:09;;;;;;;3.30;0.10;;;16.80;99.90;;;;;;5076205;28;20032;-89
2022/07/07 11:12:44;;;;;;;0.00;0.00;;;16.70;99.90;;;;;;5095054;28;20029;-83
2022/07/07 11:15:23;;;;;;;0.43;0.10;;;16.60;99.90;;;;;;5089189;28;20102;-83
2022/07/07 11:17:53;;;;;;;0.10;0.10;;;16.60;99.90;;;;;;5088538;28;20105;-83
2022/07/07 11:20:22;;;;;;;0.00;0.00;;;16.60;99.90;;;;;;5083438;28;20111;-83
2022/07/07 11:22:51;;;;;;;0.10;0.10;;;16.60;99.90;;;;;;5105154;28;20045;-83
2022/07/07 11:25:20;;;;;;;0.03;0.03;;;16.60;99.90;;;;;;5072854;28;20075;-83
2022/07/07 11:27:49;;;;;;;0.00;0.00;;;16.70;99.90;;;;;;5071414;28;20520;-83
2022/07/07 11:30:21;;;;;;;0.00;0.00;;;16.90;99.90;;;;;;5088893;28;20040;-88
2022/07/07 11:32:48;;;;;;;0.38;0.20;;;17.00;99.90;;;;;;5056265;28;20053;-87
2022/07/07 11:35:14;;;;;;;0.03;0.03;;;17.10;99.90;;;;;;5042643;28;20040;-87
2022/07/07 11:37:44;;;;;;;0.85;0.32;;;17.10;99.90;;;;;;5060094;28;20032;-88
2022/07/07 11:40:13;;;;;;;0.10;0.10;;;17.30;99.90;;;;;;5076213;28;20097;-83
2022/07/07 11:42:42;;;;;;;0.00;0.00;;;17.30;99.90;;;;;;5075790;28;20036;-84
2022/07/07 11:45:35;;;;;;;0.00;0.00;;;17.30;99.90;;;;;;5093370;28;20037;-83
2022/07/07 11:48:03;;;;;;;0.00;0.00;;;17.40;99.90;;;;;;5056157;28;20386;-83
2022/07/07 11:50:31;;;;;;;0.10;0.10;;;17.20;99.90;;;;;;5093229;28;20090;-87
2022/07/07 11:52:59;;;;;;;0.00;0.00;;;17.20;99.90;;;;;;5105813;28;20394;-88
2022/07/07 11:55:27;;;;;;;0.05;0.05;;;17.10;99.90;;;;;;5076740;28;20040;-88
2022/07/07 11:57:59;;;;;;;0.40;0.28;;;17.10;99.90;;;;;;5079922;28;20075;-88
2022/07/07 12:00:29;;;;;;;0.10;0.10;;;17.10;99.90;;;;;;5091061;28;20040;-83
2022/07/07 12:02:57;;;;;;;0.03;0.00;;;17.20;99.90;;;;;;5076321;28;20033;-83
2022/07/07 12:05:27;;;;;;;3.40;0.38;;;17.30;99.90;;;;;;5088236;28;20032;-89
2022/07/07 12:07:55;;;;;;;0.70;0.20;;;17.30;99.90;;;;;;5095786;28;20036;-83
2022/07/07 12:10:27;;;;;;;0.15;0.10;;;17.30;99.90;;;;;;5093978;28;20063;-83
2022/07/07 12:13:02;;;;;;;0.30;0.10;;;17.30;99.90;;;;;;5075656;28;20591;-88
2022/07/07 12:15:49;;;;;;;0.10;0.03;;;17.20;99.90;;;;;;5076323;28;20044;-87
2022/07/07 12:18:24;;;;;;;0.10;0.10;;;17.20;99.90;;;;;;5092877;28;20405;-88
2022/07/07 12:21:21;;;;;;;0.00;0.00;;;17.30;99.90;;;;;;5075250;28;20036;-86
2022/07/07 12:23:52;;;;;;;0.00;0.00;;;17.50;99.90;;;;;;5073962;28;20045;-83
2022/07/07 12:26:27;;;;;;;0.38;0.08;;;17.60;99.90;;;;;;5072887;28;20127;-86
2022/07/07 12:28:59;;;;;;;1.45;0.52;;;17.70;99.90;;;;;;5088114;28;20098;-86
2022/07/07 12:31:25;;;;;;;0.00;0.00;;;17.70;99.90;;;;;;5058152;28;20749;-87
2022/07/07 12:33:52;;;;;;;0.13;0.13;;;17.70;99.90;;;;;;5052783;28;20124;-82
2022/07/07 12:36:27;;;;;;;0.10;0.10;;;17.60;99.90;;;;;;5038399;28;20478;-87
2022/07/07 12:38:59;;;;;;;0.10;0.10;;;17.40;99.90;;;;;;5088016;28;20045;-81
2022/07/07 12:41:37;;;;;;;0.00;0.00;;;17.40;99.90;;;;;;5071300;28;20086;-83
2022/07/07 12:44:29;;;;;;;0.17;0.10;;;17.20;99.90;;;;;;5071274;28;20086;-84
2022/07/07 12:46:56;;;;;;;0.50;0.40;;;17.20;99.90;;;;;;5069454;28;20076;-83
2022/07/07 12:49:23;;;;;;;0.00;0.00;;;17.10;99.90;;;;;;5066794;28;20109;-82
2022/07/07 12:51:51;;;;;;;0.25;0.10;;;17.10;99.90;;;;;;5087111;28;20032;-83
2022/07/07 12:54:29;;;;;;;0.15;0.10;;;17.10;99.90;;;;;;5060207;28;20045;-84
2022/07/07 12:57:04;;;;;;;0.85;0.20;;;17.00;99.90;;;;;;5077125;28;20123;-80
2022/07/07 12:59:40;;;;;;;0.00;0.00;;;17.00;99.90;;;;;;5065574;28;20037;-83